sensor_id;sensor_type;location;lat;lon;timestamp;P1;durP1;ratioP1;P2;durP2;ratioP2
35276;SDS011;21401;50.878;8.050;2022-12-20T00:01:20;76.97;;;35.38;;
35276;SDS011;21401;50.878;8.050;2022-12-20T00:03:51;67.70;;;34.38;;
35276;SDS011;21401;50.878;8.050;2022-12-20T00:06:18;72.22;;;35.00;;
35276;SDS011;21401;50.878;8.050;2022-12-20T00:08:44;76.45;;;36.78;;
35276;SDS011;21401;50.878;8.050;2022-12-20T00:11:12;83.88;;;35.70;;
35276;SDS011;21401;50.878;8.050;2022-12-20T00:13:38;76.60;;;35.65;;
35276;SDS011;21401;50.878;8.050;2022-12-20T00:16:04;71.50;;;35.75;;
35276;SDS011;21401;50.878;8.050;2022-12-20T00:18:31;75.63;;;35.65;;
35276;SDS011;21401;50.878;8.050;2022-12-20T00:21:00;75.47;;;36.25;;
35276;SDS011;21401;50.878;8.050;2022-12-20T00:23:27;81.07;;;37.33;;
35276;SDS011;21401;50.878;8.050;2022-12-20T00:25:59;83.20;;;36.40;;
35276;SDS011;21401;50.878;8.050;2022-12-20T00:28:25;60.05;;;26.20;;
35276;SDS011;21401;50.878;8.050;2022-12-20T00:30:54;77.72;;;35.17;;
35276;SDS011;21401;50.878;8.050;2022-12-20T00:33:20;73.45;;;35.38;;
35276;SDS011;21401;50.878;8.050;2022-12-20T00:35:45;85.60;;;38.65;;
35276;SDS011;21401;50.878;8.050;2022-12-20T00:38:11;75.45;;;35.78;;
35276;SDS011;21401;50.878;8.050;2022-12-20T00:40:36;71.70;;;37.20;;
35276;SDS011;21401;50.878;8.050;2022-12-20T00:43:02;75.68;;;34.67;;
35276;SDS011;21401;50.878;8.050;2022-12-20T00:45:28;72.70;;;36.42;;
35276;SDS011;21401;50.878;8.050;2022-12-20T00:47:53;75.13;;;33.95;;
35276;SDS011;21401;50.878;8.050;2022-12-20T00:50:19;70.82;;;32.88;;
35276;SDS011;21401;50.878;8.050;2022-12-20T00:52:44;74.32;;;33.03;;
35276;SDS011;21401;50.878;8.050;2022-12-20T00:55:10;66.53;;;33.08;;
35276;SDS011;21401;50.878;8.050;2022-12-20T00:57:35;66.80;;;32.70;;
35276;SDS011;21401;50.878;8.050;2022-12-20T01:00:01;56.22;;;30.23;;
35276;SDS011;21401;50.878;8.050;2022-12-20T01:02:27;62.13;;;34.15;;
35276;SDS011;21401;50.878;8.050;2022-12-20T01:04:53;66.90;;;32.55;;
35276;SDS011;21401;50.878;8.050;2022-12-20T01:07:21;64.20;;;32.53;;
35276;SDS011;21401;50.878;8.050;2022-12-20T01:09:47;53.35;;;30.85;;
35276;SDS011;21401;50.878;8.050;2022-12-20T01:12:13;60.13;;;31.13;;
35276;SDS011;21401;50.878;8.050;2022-12-20T01:14:41;61.97;;;32.30;;
35276;SDS011;21401;50.878;8.050;2022-12-20T01:17:06;62.03;;;31.60;;
35276;SDS011;21401;50.878;8.050;2022-12-20T01:19:32;62.90;;;32.00;;
35276;SDS011;21401;50.878;8.050;2022-12-20T01:22:00;61.85;;;32.03;;
35276;SDS011;21401;50.878;8.050;2022-12-20T01:24:25;59.28;;;31.55;;
35276;SDS011;21401;50.878;8.050;2022-12-20T01:26:51;60.55;;;31.92;;
35276;SDS011;21401;50.878;8.050;2022-12-20T01:29:17;60.53;;;31.08;;
35276;SDS011;21401;50.878;8.050;2022-12-20T01:31:42;63.47;;;31.88;;
35276;SDS011;21401;50.878;8.050;2022-12-20T01:34:08;63.75;;;32.13;;
35276;SDS011;21401;50.878;8.050;2022-12-20T01:36:35;59.85;;;31.73;;
35276;SDS011;21401;50.878;8.050;2022-12-20T01:39:08;61.08;;;32.30;;
35276;SDS011;21401;50.878;8.050;2022-12-20T01:41:37;60.10;;;30.70;;
35276;SDS011;21401;50.878;8.050;2022-12-20T01:44:05;54.13;;;31.67;;
35276;SDS011;21401;50.878;8.050;2022-12-20T01:46:40;62.35;;;32.60;;
35276;SDS011;21401;50.878;8.050;2022-12-20T01:49:08;64.07;;;32.50;;
35276;SDS011;21401;50.878;8.050;2022-12-20T01:51:41;60.47;;;31.25;;
35276;SDS011;21401;50.878;8.050;2022-12-20T01:54:22;50.80;;;30.38;;
35276;SDS011;21401;50.878;8.050;2022-12-20T01:57:02;57.08;;;30.42;;
35276;SDS011;21401;50.878;8.050;2022-12-20T01:59:32;61.90;;;31.10;;
35276;SDS011;21401;50.878;8.050;2022-12-20T02:02:01;59.95;;;32.42;;
35276;SDS011;21401;50.878;8.050;2022-12-20T02:04:29;62.15;;;31.83;;
35276;SDS011;21401;50.878;8.050;2022-12-20T02:06:54;57.25;;;30.52;;
35276;SDS011;21401;50.878;8.050;2022-12-20T02:09:22;65.00;;;32.72;;
35276;SDS011;21401;50.878;8.050;2022-12-20T02:11:50;61.92;;;32.10;;
35276;SDS011;21401;50.878;8.050;2022-12-20T02:25:42;59.60;;;29.50;;
35276;SDS011;21401;50.878;8.050;2022-12-20T02:30:59;56.63;;;30.67;;
35276;SDS011;21401;50.878;8.050;2022-12-20T02:33:31;55.90;;;29.33;;
35276;SDS011;21401;50.878;8.050;2022-12-20T02:35:57;56.90;;;29.02;;
35276;SDS011;21401;50.878;8.050;2022-12-20T02:41:02;51.28;;;28.13;;
35276;SDS011;21401;50.878;8.050;2022-12-20T02:43:30;55.75;;;28.85;;
35276;SDS011;21401;50.878;8.050;2022-12-20T02:46:17;56.38;;;29.13;;
35276;SDS011;21401;50.878;8.050;2022-12-20T02:48:45;54.92;;;28.30;;
35276;SDS011;21401;50.878;8.050;2022-12-20T02:51:13;57.13;;;29.52;;
35276;SDS011;21401;50.878;8.050;2022-12-20T02:53:42;56.60;;;30.13;;
35276;SDS011;21401;50.878;8.050;2022-12-20T02:56:11;60.55;;;29.38;;
35276;SDS011;21401;50.878;8.050;2022-12-20T02:58:51;56.03;;;30.38;;
35276;SDS011;21401;50.878;8.050;2022-12-20T03:01:23;54.45;;;28.33;;
35276;SDS011;21401;50.878;8.050;2022-12-20T03:03:53;59.47;;;29.98;;
35276;SDS011;21401;50.878;8.050;2022-12-20T03:06:20;52.97;;;29.70;;
35276;SDS011;21401;50.878;8.050;2022-12-20T03:08:46;57.78;;;30.55;;
35276;SDS011;21401;50.878;8.050;2022-12-20T03:11:11;59.75;;;29.63;;
35276;SDS011;21401;50.878;8.050;2022-12-20T03:13:38;55.78;;;30.15;;
35276;SDS011;21401;50.878;8.050;2022-12-20T03:16:04;60.63;;;31.70;;
35276;SDS011;21401;50.878;8.050;2022-12-20T03:18:30;61.08;;;32.75;;
35276;SDS011;21401;50.878;8.050;2022-12-20T03:20:55;61.60;;;30.77;;
35276;SDS011;21401;50.878;8.050;2022-12-20T03:23:21;58.83;;;30.35;;
35276;SDS011;21401;50.878;8.050;2022-12-20T03:25:49;58.50;;;30.55;;
35276;SDS011;21401;50.878;8.050;2022-12-20T03:28:15;64.72;;;31.73;;
35276;SDS011;21401;50.878;8.050;2022-12-20T03:30:42;60.45;;;30.00;;
35276;SDS011;21401;50.878;8.050;2022-12-20T03:33:08;55.40;;;30.10;;
35276;SDS011;21401;50.878;8.050;2022-12-20T03:35:34;59.05;;;31.88;;
35276;SDS011;21401;50.878;8.050;2022-12-20T03:37:59;60.15;;;32.83;;
35276;SDS011;21401;50.878;8.050;2022-12-20T03:40:25;63.72;;;32.45;;
35276;SDS011;21401;50.878;8.050;2022-12-20T03:42:50;63.20;;;32.38;;
35276;SDS011;21401;50.878;8.050;2022-12-20T03:45:16;54.53;;;29.45;;
35276;SDS011;21401;50.878;8.050;2022-12-20T03:47:42;58.75;;;30.80;;
35276;SDS011;21401;50.878;8.050;2022-12-20T03:50:08;61.42;;;29.88;;
35276;SDS011;21401;50.878;8.050;2022-12-20T03:52:34;61.35;;;31.08;;
35276;SDS011;21401;50.878;8.050;2022-12-20T03:54:59;61.10;;;32.08;;
35276;SDS011;21401;50.878;8.050;2022-12-20T03:57:25;62.35;;;31.55;;
35276;SDS011;21401;50.878;8.050;2022-12-20T03:59:50;54.95;;;29.48;;
35276;SDS011;21401;50.878;8.050;2022-12-20T04:02:21;60.70;;;31.02;;
35276;SDS011;21401;50.878;8.050;2022-12-20T04:04:47;60.63;;;30.40;;
35276;SDS011;21401;50.878;8.050;2022-12-20T04:07:13;64.38;;;31.63;;
35276;SDS011;21401;50.878;8.050;2022-12-20T04:09:38;57.67;;;28.42;;
35276;SDS011;21401;50.878;8.050;2022-12-20T04:12:06;52.45;;;28.98;;
35276;SDS011;21401;50.878;8.050;2022-12-20T04:14:32;53.55;;;29.95;;
35276;SDS011;21401;50.878;8.050;2022-12-20T04:17:01;52.90;;;27.77;;
35276;SDS011;21401;50.878;8.050;2022-12-20T04:19:27;55.85;;;27.48;;
35276;SDS011;21401;50.878;8.050;2022-12-20T04:21:52;47.28;;;26.38;;
35276;SDS011;21401;50.878;8.050;2022-12-20T04:24:20;41.42;;;23.63;;
35276;SDS011;21401;50.878;8.050;2022-12-20T04:26:45;49.22;;;25.95;;
35276;SDS011;21401;50.878;8.050;2022-12-20T04:29:11;50.53;;;27.70;;
35276;SDS011;21401;50.878;8.050;2022-12-20T04:31:37;44.03;;;25.27;;
35276;SDS011;21401;50.878;8.050;2022-12-20T04:34:04;43.15;;;23.48;;
35276;SDS011;21401;50.878;8.050;2022-12-20T04:36:30;47.40;;;25.55;;
35276;SDS011;21401;50.878;8.050;2022-12-20T04:38:55;55.45;;;27.55;;
35276;SDS011;21401;50.878;8.050;2022-12-20T04:41:23;55.72;;;28.35;;
35276;SDS011;21401;50.878;8.050;2022-12-20T04:43:51;49.20;;;28.58;;
35276;SDS011;21401;50.878;8.050;2022-12-20T04:46:22;49.47;;;28.17;;
35276;SDS011;21401;50.878;8.050;2022-12-20T04:48:48;53.65;;;28.20;;
35276;SDS011;21401;50.878;8.050;2022-12-20T04:51:14;53.30;;;28.38;;
35276;SDS011;21401;50.878;8.050;2022-12-20T04:53:43;58.83;;;29.42;;
35276;SDS011;21401;50.878;8.050;2022-12-20T04:56:18;62.40;;;29.73;;
35276;SDS011;21401;50.878;8.050;2022-12-20T04:58:49;59.20;;;30.65;;
35276;SDS011;21401;50.878;8.050;2022-12-20T05:01:18;58.13;;;29.42;;
35276;SDS011;21401;50.878;8.050;2022-12-20T05:03:44;62.25;;;28.98;;
35276;SDS011;21401;50.878;8.050;2022-12-20T05:06:11;64.45;;;29.42;;
35276;SDS011;21401;50.878;8.050;2022-12-20T05:08:37;54.08;;;27.77;;
35276;SDS011;21401;50.878;8.050;2022-12-20T05:11:03;58.65;;;30.10;;
35276;SDS011;21401;50.878;8.050;2022-12-20T05:13:29;67.25;;;31.55;;
35276;SDS011;21401;50.878;8.050;2022-12-20T05:15:56;58.45;;;29.17;;
35276;SDS011;21401;50.878;8.050;2022-12-20T05:18:22;65.53;;;29.45;;
35276;SDS011;21401;50.878;8.050;2022-12-20T05:20:48;55.55;;;29.38;;
35276;SDS011;21401;50.878;8.050;2022-12-20T05:23:36;63.85;;;31.60;;
35276;SDS011;21401;50.878;8.050;2022-12-20T05:26:21;63.70;;;30.90;;
35276;SDS011;21401;50.878;8.050;2022-12-20T05:28:48;59.47;;;28.85;;
35276;SDS011;21401;50.878;8.050;2022-12-20T05:31:14;57.40;;;30.30;;
35276;SDS011;21401;50.878;8.050;2022-12-20T05:33:42;61.88;;;30.95;;
35276;SDS011;21401;50.878;8.050;2022-12-20T05:36:10;57.65;;;31.02;;
35276;SDS011;21401;50.878;8.050;2022-12-20T05:38:38;58.83;;;29.67;;
35276;SDS011;21401;50.878;8.050;2022-12-20T05:41:04;57.22;;;31.40;;
35276;SDS011;21401;50.878;8.050;2022-12-20T05:43:32;50.85;;;28.77;;
35276;SDS011;21401;50.878;8.050;2022-12-20T05:46:05;52.13;;;29.27;;
35276;SDS011;21401;50.878;8.050;2022-12-20T05:48:37;54.85;;;29.15;;
35276;SDS011;21401;50.878;8.050;2022-12-20T05:51:02;52.05;;;29.33;;
35276;SDS011;21401;50.878;8.050;2022-12-20T05:53:30;57.42;;;30.15;;
35276;SDS011;21401;50.878;8.050;2022-12-20T05:55:56;53.25;;;30.63;;
35276;SDS011;21401;50.878;8.050;2022-12-20T05:58:26;54.72;;;31.23;;
35276;SDS011;21401;50.878;8.050;2022-12-20T06:03:24;43.15;;;25.67;;
35276;SDS011;21401;50.878;8.050;2022-12-20T06:05:49;52.08;;;29.58;;
35276;SDS011;21401;50.878;8.050;2022-12-20T06:08:17;50.75;;;28.88;;
35276;SDS011;21401;50.878;8.050;2022-12-20T06:10:47;45.55;;;26.40;;
35276;SDS011;21401;50.878;8.050;2022-12-20T06:13:13;45.05;;;27.98;;
35276;SDS011;21401;50.878;8.050;2022-12-20T06:15:39;46.28;;;27.90;;
35276;SDS011;21401;50.878;8.050;2022-12-20T06:18:06;48.47;;;27.67;;
35276;SDS011;21401;50.878;8.050;2022-12-20T06:20:35;51.95;;;26.75;;
35276;SDS011;21401;50.878;8.050;2022-12-20T06:23:03;43.20;;;26.77;;
35276;SDS011;21401;50.878;8.050;2022-12-20T06:25:31;47.42;;;29.00;;
35276;SDS011;21401;50.878;8.050;2022-12-20T06:27:59;44.13;;;26.80;;
35276;SDS011;21401;50.878;8.050;2022-12-20T06:30:28;51.38;;;30.13;;
35276;SDS011;21401;50.878;8.050;2022-12-20T06:32:53;56.67;;;31.52;;
35276;SDS011;21401;50.878;8.050;2022-12-20T06:35:19;47.40;;;26.60;;
35276;SDS011;21401;50.878;8.050;2022-12-20T06:37:46;45.80;;;27.48;;
35276;SDS011;21401;50.878;8.050;2022-12-20T06:40:12;51.33;;;26.98;;
35276;SDS011;21401;50.878;8.050;2022-12-20T06:42:38;42.95;;;26.55;;
35276;SDS011;21401;50.878;8.050;2022-12-20T06:45:04;44.10;;;26.25;;
35276;SDS011;21401;50.878;8.050;2022-12-20T06:47:32;43.45;;;26.75;;
35276;SDS011;21401;50.878;8.050;2022-12-20T06:50:01;44.72;;;25.02;;
35276;SDS011;21401;50.878;8.050;2022-12-20T06:52:29;41.45;;;24.80;;
35276;SDS011;21401;50.878;8.050;2022-12-20T06:54:57;39.85;;;24.48;;
35276;SDS011;21401;50.878;8.050;2022-12-20T06:57:22;42.85;;;25.42;;
35276;SDS011;21401;50.878;8.050;2022-12-20T06:59:48;43.65;;;25.70;;
35276;SDS011;21401;50.878;8.050;2022-12-20T07:02:14;43.67;;;26.75;;
35276;SDS011;21401;50.878;8.050;2022-12-20T07:04:39;36.17;;;24.98;;
35276;SDS011;21401;50.878;8.050;2022-12-20T07:07:10;49.80;;;27.38;;
35276;SDS011;21401;50.878;8.050;2022-12-20T07:09:36;49.70;;;28.77;;
35276;SDS011;21401;50.878;8.050;2022-12-20T07:12:05;46.88;;;28.70;;
35276;SDS011;21401;50.878;8.050;2022-12-20T07:14:31;50.70;;;28.90;;
35276;SDS011;21401;50.878;8.050;2022-12-20T07:16:57;47.88;;;28.33;;
35276;SDS011;21401;50.878;8.050;2022-12-20T07:19:22;48.97;;;27.58;;
35276;SDS011;21401;50.878;8.050;2022-12-20T07:21:50;44.35;;;26.23;;
35276;SDS011;21401;50.878;8.050;2022-12-20T07:24:18;42.42;;;26.17;;
35276;SDS011;21401;50.878;8.050;2022-12-20T07:26:44;44.75;;;26.45;;
35276;SDS011;21401;50.878;8.050;2022-12-20T07:29:10;43.45;;;26.73;;
35276;SDS011;21401;50.878;8.050;2022-12-20T07:31:39;40.97;;;25.33;;
35276;SDS011;21401;50.878;8.050;2022-12-20T07:34:04;40.13;;;26.65;;
35276;SDS011;21401;50.878;8.050;2022-12-20T07:36:32;40.53;;;25.70;;
35276;SDS011;21401;50.878;8.050;2022-12-20T07:38:58;41.85;;;25.70;;
35276;SDS011;21401;50.878;8.050;2022-12-20T07:41:23;50.55;;;25.88;;
35276;SDS011;21401;50.878;8.050;2022-12-20T07:43:50;42.85;;;25.95;;
35276;SDS011;21401;50.878;8.050;2022-12-20T07:46:15;40.33;;;25.70;;
35276;SDS011;21401;50.878;8.050;2022-12-20T07:48:44;42.05;;;26.38;;
35276;SDS011;21401;50.878;8.050;2022-12-20T07:51:14;40.00;;;24.95;;
35276;SDS011;21401;50.878;8.050;2022-12-20T07:54:08;42.95;;;27.90;;
35276;SDS011;21401;50.878;8.050;2022-12-20T07:56:40;44.28;;;25.83;;
35276;SDS011;21401;50.878;8.050;2022-12-20T07:59:10;43.83;;;25.85;;
35276;SDS011;21401;50.878;8.050;2022-12-20T08:01:39;41.70;;;24.65;;
35276;SDS011;21401;50.878;8.050;2022-12-20T08:04:09;47.20;;;27.40;;
35276;SDS011;21401;50.878;8.050;2022-12-20T08:06:39;41.00;;;26.70;;
35276;SDS011;21401;50.878;8.050;2022-12-20T08:09:06;41.80;;;25.75;;
35276;SDS011;21401;50.878;8.050;2022-12-20T08:11:36;46.85;;;27.27;;
35276;SDS011;21401;50.878;8.050;2022-12-20T08:14:03;41.97;;;26.27;;
35276;SDS011;21401;50.878;8.050;2022-12-20T08:16:30;42.45;;;27.02;;
35276;SDS011;21401;50.878;8.050;2022-12-20T08:18:56;39.80;;;24.98;;
35276;SDS011;21401;50.878;8.050;2022-12-20T08:21:24;42.45;;;25.90;;
35276;SDS011;21401;50.878;8.050;2022-12-20T08:23:49;41.38;;;24.73;;
35276;SDS011;21401;50.878;8.050;2022-12-20T08:26:15;46.15;;;26.02;;
35276;SDS011;21401;50.878;8.050;2022-12-20T08:28:42;43.10;;;26.40;;
35276;SDS011;21401;50.878;8.050;2022-12-20T08:31:08;38.08;;;24.65;;
35276;SDS011;21401;50.878;8.050;2022-12-20T08:33:34;41.53;;;24.67;;
35276;SDS011;21401;50.878;8.050;2022-12-20T08:36:02;37.42;;;22.80;;
35276;SDS011;21401;50.878;8.050;2022-12-20T08:38:32;42.58;;;25.13;;
35276;SDS011;21401;50.878;8.050;2022-12-20T08:41:02;48.33;;;25.60;;
35276;SDS011;21401;50.878;8.050;2022-12-20T08:43:30;37.45;;;24.13;;
35276;SDS011;21401;50.878;8.050;2022-12-20T08:45:57;38.22;;;22.88;;
35276;SDS011;21401;50.878;8.050;2022-12-20T08:48:22;42.97;;;24.63;;
35276;SDS011;21401;50.878;8.050;2022-12-20T08:50:58;38.38;;;22.77;;
35276;SDS011;21401;50.878;8.050;2022-12-20T08:53:26;37.97;;;24.80;;
35276;SDS011;21401;50.878;8.050;2022-12-20T08:55:58;43.15;;;23.30;;
35276;SDS011;21401;50.878;8.050;2022-12-20T08:58:30;41.15;;;24.33;;
35276;SDS011;21401;50.878;8.050;2022-12-20T09:01:00;39.22;;;24.98;;
35276;SDS011;21401;50.878;8.050;2022-12-20T09:03:30;35.53;;;23.20;;
35276;SDS011;21401;50.878;8.050;2022-12-20T09:05:57;35.83;;;22.48;;
35276;SDS011;21401;50.878;8.050;2022-12-20T09:08:24;36.85;;;21.75;;
35276;SDS011;21401;50.878;8.050;2022-12-20T09:10:52;38.88;;;22.58;;
35276;SDS011;21401;50.878;8.050;2022-12-20T09:13:27;40.55;;;22.83;;
35276;SDS011;21401;50.878;8.050;2022-12-20T09:15:52;45.63;;;25.70;;
35276;SDS011;21401;50.878;8.050;2022-12-20T09:18:18;39.33;;;24.63;;
35276;SDS011;21401;50.878;8.050;2022-12-20T09:20:43;38.20;;;24.25;;
35276;SDS011;21401;50.878;8.050;2022-12-20T09:23:11;44.22;;;25.08;;
35276;SDS011;21401;50.878;8.050;2022-12-20T09:25:37;38.67;;;24.85;;
35276;SDS011;21401;50.878;8.050;2022-12-20T09:28:03;41.63;;;25.10;;
35276;SDS011;21401;50.878;8.050;2022-12-20T09:30:29;40.47;;;24.83;;
35276;SDS011;21401;50.878;8.050;2022-12-20T09:32:54;40.60;;;24.50;;
35276;SDS011;21401;50.878;8.050;2022-12-20T09:35:21;35.60;;;23.10;;
35276;SDS011;21401;50.878;8.050;2022-12-20T09:37:47;41.20;;;23.52;;
35276;SDS011;21401;50.878;8.050;2022-12-20T09:40:16;43.35;;;23.08;;
35276;SDS011;21401;50.878;8.050;2022-12-20T09:42:46;38.80;;;23.05;;
35276;SDS011;21401;50.878;8.050;2022-12-20T09:45:18;38.95;;;24.83;;
35276;SDS011;21401;50.878;8.050;2022-12-20T09:47:49;38.58;;;24.05;;
35276;SDS011;21401;50.878;8.050;2022-12-20T09:50:16;41.05;;;22.98;;
35276;SDS011;21401;50.878;8.050;2022-12-20T10:01:13;39.17;;;24.25;;
35276;SDS011;21401;50.878;8.050;2022-12-20T10:03:43;35.17;;;22.10;;
35276;SDS011;21401;50.878;8.050;2022-12-20T10:08:43;35.53;;;22.73;;
35276;SDS011;21401;50.878;8.050;2022-12-20T10:11:41;33.47;;;22.00;;
35276;SDS011;21401;50.878;8.050;2022-12-20T10:16:50;47.40;;;24.20;;
35276;SDS011;21401;50.878;8.050;2022-12-20T10:19:29;34.65;;;21.17;;
35276;SDS011;21401;50.878;8.050;2022-12-20T10:22:22;39.45;;;22.35;;
35276;SDS011;21401;50.878;8.050;2022-12-20T10:25:12;35.63;;;23.08;;
35276;SDS011;21401;50.878;8.050;2022-12-20T10:27:44;33.95;;;20.15;;
35276;SDS011;21401;50.878;8.050;2022-12-20T10:30:18;32.42;;;20.35;;
35276;SDS011;21401;50.878;8.050;2022-12-20T10:32:49;38.90;;;22.42;;
35276;SDS011;21401;50.878;8.050;2022-12-20T10:40:45;37.40;;;22.00;;
35276;SDS011;21401;50.878;8.050;2022-12-20T10:43:16;42.85;;;22.92;;
35276;SDS011;21401;50.878;8.050;2022-12-20T10:50:58;34.88;;;21.77;;
35276;SDS011;21401;50.878;8.050;2022-12-20T10:53:29;33.17;;;21.38;;
35276;SDS011;21401;50.878;8.050;2022-12-20T10:56:38;34.17;;;20.65;;
35276;SDS011;21401;50.878;8.050;2022-12-20T10:58:51;39.72;;;21.10;;
35276;SDS011;21401;50.878;8.050;2022-12-20T11:01:23;33.35;;;20.92;;
35276;SDS011;21401;50.878;8.050;2022-12-20T11:03:58;34.20;;;20.20;;
35276;SDS011;21401;50.878;8.050;2022-12-20T11:18:55;32.60;;;19.80;;
35276;SDS011;21401;50.878;8.050;2022-12-20T11:21:36;28.70;;;19.13;;
35276;SDS011;21401;50.878;8.050;2022-12-20T11:24:13;29.83;;;19.30;;
35276;SDS011;21401;50.878;8.050;2022-12-20T11:35:38;26.35;;;17.35;;
35276;SDS011;21401;50.878;8.050;2022-12-20T11:40:30;23.27;;;16.17;;
35276;SDS011;21401;50.878;8.050;2022-12-20T11:54:11;22.25;;;16.02;;
35276;SDS011;21401;50.878;8.050;2022-12-20T11:56:55;24.15;;;15.88;;
35276;SDS011;21401;50.878;8.050;2022-12-20T11:59:46;26.48;;;15.93;;
35276;SDS011;21401;50.878;8.050;2022-12-20T12:05:06;23.88;;;14.30;;
35276;SDS011;21401;50.878;8.050;2022-12-20T12:07:52;24.77;;;15.45;;
35276;SDS011;21401;50.878;8.050;2022-12-20T12:10:23;27.00;;;15.32;;
35276;SDS011;21401;50.878;8.050;2022-12-20T12:15:53;23.70;;;15.48;;
35276;SDS011;21401;50.878;8.050;2022-12-20T12:18:35;27.00;;;16.40;;
35276;SDS011;21401;50.878;8.050;2022-12-20T12:23:57;23.75;;;15.15;;
35276;SDS011;21401;50.878;8.050;2022-12-20T12:26:28;29.42;;;17.50;;
35276;SDS011;21401;50.878;8.050;2022-12-20T12:31:28;29.65;;;17.40;;
35276;SDS011;21401;50.878;8.050;2022-12-20T12:45:50;31.17;;;19.70;;
35276;SDS011;21401;50.878;8.050;2022-12-20T12:48:24;34.45;;;19.42;;
35276;SDS011;21401;50.878;8.050;2022-12-20T12:51:09;31.80;;;18.70;;
35276;SDS011;21401;50.878;8.050;2022-12-20T12:53:48;32.53;;;21.20;;
35276;SDS011;21401;50.878;8.050;2022-12-20T13:04:51;33.90;;;20.40;;
35276;SDS011;21401;50.878;8.050;2022-12-20T13:09:59;27.95;;;19.40;;
35276;SDS011;21401;50.878;8.050;2022-12-20T13:20:33;37.90;;;19.42;;
35276;SDS011;21401;50.878;8.050;2022-12-20T13:25:39;28.33;;;19.48;;
35276;SDS011;21401;50.878;8.050;2022-12-20T13:33:42;31.65;;;18.80;;
35276;SDS011;21401;50.878;8.050;2022-12-20T13:38:51;37.85;;;20.25;;
35276;SDS011;21401;50.878;8.050;2022-12-20T13:43:46;31.70;;;17.75;;
35276;SDS011;21401;50.878;8.050;2022-12-20T13:46:20;31.00;;;17.90;;
35276;SDS011;21401;50.878;8.050;2022-12-20T13:48:52;24.98;;;16.25;;
35276;SDS011;21401;50.878;8.050;2022-12-20T13:51:26;29.13;;;17.15;;
35276;SDS011;21401;50.878;8.050;2022-12-20T13:58:55;29.50;;;17.83;;
35276;SDS011;21401;50.878;8.050;2022-12-20T14:01:27;25.55;;;17.40;;
35276;SDS011;21401;50.878;8.050;2022-12-20T14:03:53;28.60;;;17.95;;
35276;SDS011;21401;50.878;8.050;2022-12-20T14:06:19;36.72;;;19.00;;
35276;SDS011;21401;50.878;8.050;2022-12-20T14:08:48;33.78;;;19.08;;
35276;SDS011;21401;50.878;8.050;2022-12-20T14:13:50;29.95;;;19.05;;
35276;SDS011;21401;50.878;8.050;2022-12-20T14:16:22;31.58;;;18.50;;
35276;SDS011;21401;50.878;8.050;2022-12-20T14:21:27;29.95;;;18.63;;
35276;SDS011;21401;50.878;8.050;2022-12-20T14:23:54;33.85;;;19.23;;
35276;SDS011;21401;50.878;8.050;2022-12-20T14:26:34;31.20;;;18.77;;
35276;SDS011;21401;50.878;8.050;2022-12-20T14:29:09;31.70;;;19.38;;
35276;SDS011;21401;50.878;8.050;2022-12-20T14:31:40;31.67;;;18.85;;
35276;SDS011;21401;50.878;8.050;2022-12-20T14:36:41;29.05;;;17.40;;
35276;SDS011;21401;50.878;8.050;2022-12-20T14:42:00;25.08;;;15.65;;
35276;SDS011;21401;50.878;8.050;2022-12-20T14:44:32;28.55;;;16.55;;
35276;SDS011;21401;50.878;8.050;2022-12-20T14:47:04;24.17;;;15.85;;
35276;SDS011;21401;50.878;8.050;2022-12-20T14:49:41;26.75;;;16.05;;
35276;SDS011;21401;50.878;8.050;2022-12-20T14:52:32;30.15;;;18.27;;
35276;SDS011;21401;50.878;8.050;2022-12-20T14:55:06;26.00;;;17.23;;
35276;SDS011;21401;50.878;8.050;2022-12-20T14:57:51;26.77;;;17.13;;
35276;SDS011;21401;50.878;8.050;2022-12-20T15:13:19;33.17;;;17.98;;
35276;SDS011;21401;50.878;8.050;2022-12-20T15:15:47;29.92;;;18.25;;
35276;SDS011;21401;50.878;8.050;2022-12-20T15:18:16;23.88;;;15.02;;
35276;SDS011;21401;50.878;8.050;2022-12-20T15:20:44;22.52;;;14.80;;
35276;SDS011;21401;50.878;8.050;2022-12-20T15:23:11;23.85;;;15.05;;
35276;SDS011;21401;50.878;8.050;2022-12-20T15:25:41;22.17;;;14.60;;
35276;SDS011;21401;50.878;8.050;2022-12-20T15:28:16;22.98;;;14.40;;
35276;SDS011;21401;50.878;8.050;2022-12-20T15:30:46;24.08;;;15.68;;
35276;SDS011;21401;50.878;8.050;2022-12-20T15:33:21;22.15;;;13.77;;
35276;SDS011;21401;50.878;8.050;2022-12-20T15:35:49;24.67;;;13.95;;
35276;SDS011;21401;50.878;8.050;2022-12-20T15:38:22;18.33;;;13.65;;
35276;SDS011;21401;50.878;8.050;2022-12-20T15:40:54;20.52;;;13.45;;
35276;SDS011;21401;50.878;8.050;2022-12-20T15:43:24;15.80;;;8.70;;
35276;SDS011;21401;50.878;8.050;2022-12-20T15:45:51;18.20;;;12.80;;
35276;SDS011;21401;50.878;8.050;2022-12-20T15:48:23;23.10;;;13.82;;
35276;SDS011;21401;50.878;8.050;2022-12-20T15:50:53;20.52;;;12.23;;
35276;SDS011;21401;50.878;8.050;2022-12-20T15:53:24;26.35;;;15.52;;
35276;SDS011;21401;50.878;8.050;2022-12-20T15:56:00;21.42;;;15.00;;
35276;SDS011;21401;50.878;8.050;2022-12-20T15:58:28;27.85;;;14.60;;
35276;SDS011;21401;50.878;8.050;2022-12-20T16:27:50;21.27;;;13.43;;
35276;SDS011;21401;50.878;8.050;2022-12-20T16:30:16;27.58;;;14.77;;
35276;SDS011;21401;50.878;8.050;2022-12-20T16:32:41;19.48;;;13.35;;
35276;SDS011;21401;50.878;8.050;2022-12-20T16:35:28;20.80;;;14.57;;
35276;SDS011;21401;50.878;8.050;2022-12-20T16:38:02;21.83;;;13.75;;
35276;SDS011;21401;50.878;8.050;2022-12-20T16:40:29;26.77;;;13.85;;
35276;SDS011;21401;50.878;8.050;2022-12-20T16:43:08;23.65;;;14.65;;
35276;SDS011;21401;50.878;8.050;2022-12-20T16:45:39;22.97;;;13.77;;
35276;SDS011;21401;50.878;8.050;2022-12-20T16:48:04;25.00;;;14.07;;
35276;SDS011;21401;50.878;8.050;2022-12-20T16:50:30;26.55;;;14.93;;
35276;SDS011;21401;50.878;8.050;2022-12-20T16:52:55;27.67;;;16.05;;
35276;SDS011;21401;50.878;8.050;2022-12-20T16:55:22;23.85;;;15.50;;
35276;SDS011;21401;50.878;8.050;2022-12-20T16:57:52;22.88;;;15.77;;
35276;SDS011;21401;50.878;8.050;2022-12-20T17:00:24;24.95;;;14.93;;
35276;SDS011;21401;50.878;8.050;2022-12-20T17:02:53;22.73;;;14.48;;
35276;SDS011;21401;50.878;8.050;2022-12-20T17:05:21;23.50;;;15.25;;
35276;SDS011;21401;50.878;8.050;2022-12-20T17:07:47;32.33;;;18.02;;
35276;SDS011;21401;50.878;8.050;2022-12-20T17:10:13;22.58;;;15.75;;
35276;SDS011;21401;50.878;8.050;2022-12-20T17:12:39;23.30;;;15.63;;
35276;SDS011;21401;50.878;8.050;2022-12-20T17:15:04;30.02;;;16.95;;
35276;SDS011;21401;50.878;8.050;2022-12-20T17:17:31;25.08;;;15.93;;
35276;SDS011;21401;50.878;8.050;2022-12-20T17:19:56;28.30;;;17.02;;
35276;SDS011;21401;50.878;8.050;2022-12-20T17:22:22;24.60;;;16.13;;
35276;SDS011;21401;50.878;8.050;2022-12-20T17:24:48;27.35;;;16.38;;
35276;SDS011;21401;50.878;8.050;2022-12-20T17:27:16;27.42;;;16.00;;
35276;SDS011;21401;50.878;8.050;2022-12-20T17:29:41;21.98;;;15.02;;
35276;SDS011;21401;50.878;8.050;2022-12-20T17:32:11;24.05;;;16.80;;
35276;SDS011;21401;50.878;8.050;2022-12-20T17:34:45;23.08;;;13.65;;
35276;SDS011;21401;50.878;8.050;2022-12-20T17:37:13;20.30;;;13.75;;
35276;SDS011;21401;50.878;8.050;2022-12-20T17:39:39;23.33;;;15.60;;
35276;SDS011;21401;50.878;8.050;2022-12-20T17:42:05;30.45;;;18.42;;